sensor_id;sensor_type;location;lat;lon;timestamp;temperature;humidity
39525;DHT22;25203;50.754;6.978;2024-03-25T00:01:44;5.60;99.90
39525;DHT22;25203;50.754;6.978;2024-03-25T00:03:44;5.60;99.90
39525;DHT22;25203;50.754;6.978;2024-03-25T00:05:45;5.60;99.90
39525;DHT22;25203;50.754;6.978;2024-03-25T00:07:46;5.60;99.90
39525;DHT22;25203;50.754;6.978;2024-03-25T00:09:47;5.60;99.90
39525;DHT22;25203;50.754;6.978;2024-03-25T00:11:48;5.60;99.90
39525;DHT22;25203;50.754;6.978;2024-03-25T00:13:48;5.60;99.90
39525;DHT22;25203;50.754;6.978;2024-03-25T00:15:49;5.50;99.90
39525;DHT22;25203;50.754;6.978;2024-03-25T00:17:50;5.50;99.90
39525;DHT22;25203;50.754;6.978;2024-03-25T00:19:51;5.40;99.90
39525;DHT22;25203;50.754;6.978;2024-03-25T00:21:51;5.30;99.90
39525;DHT22;25203;50.754;6.978;2024-03-25T00:23:52;5.30;99.90
39525;DHT22;25203;50.754;6.978;2024-03-25T00:25:52;5.30;99.90
39525;DHT22;25203;50.754;6.978;2024-03-25T00:27:53;5.30;99.90
39525;DHT22;25203;50.754;6.978;2024-03-25T00:29:54;5.20;99.90
39525;DHT22;25203;50.754;6.978;2024-03-25T00:31:54;5.20;99.90
39525;DHT22;25203;50.754;6.978;2024-03-25T00:33:56;5.20;99.90
39525;DHT22;25203;50.754;6.978;2024-03-25T00:35:56;5.20;99.90
39525;DHT22;25203;50.754;6.978;2024-03-25T00:37:57;5.30;99.90
39525;DHT22;25203;50.754;6.978;2024-03-25T00:39:57;5.20;99.90
39525;DHT22;25203;50.754;6.978;2024-03-25T00:41:58;5.20;99.90
39525;DHT22;25203;50.754;6.978;2024-03-25T00:43:59;5.20;99.90
39525;DHT22;25203;50.754;6.978;2024-03-25T00:45:59;5.20;99.90
39525;DHT22;25203;50.754;6.978;2024-03-25T00:48:00;5.20;99.90
39525;DHT22;25203;50.754;6.978;2024-03-25T00:50:01;5.20;99.90
39525;DHT22;25203;50.754;6.978;2024-03-25T00:52:01;5.20;99.90
39525;DHT22;25203;50.754;6.978;2024-03-25T00:54:02;5.10;99.90
39525;DHT22;25203;50.754;6.978;2024-03-25T00:56:03;5.10;99.90
39525;DHT22;25203;50.754;6.978;2024-03-25T00:58:04;5.10;99.90
39525;DHT22;25203;50.754;6.978;2024-03-25T01:00:05;5.00;99.90
39525;DHT22;25203;50.754;6.978;2024-03-25T01:02:06;5.00;99.90
39525;DHT22;25203;50.754;6.978;2024-03-25T01:04:06;4.90;99.90
39525;DHT22;25203;50.754;6.978;2024-03-25T01:06:08;4.80;99.90
39525;DHT22;25203;50.754;6.978;2024-03-25T01:08:08;4.70;99.90
39525;DHT22;25203;50.754;6.978;2024-03-25T01:10:11;4.80;99.90
39525;DHT22;25203;50.754;6.978;2024-03-25T01:12:12;4.70;99.90
39525;DHT22;25203;50.754;6.978;2024-03-25T01:14:12;4.70;99.90
39525;DHT22;25203;50.754;6.978;2024-03-25T01:16:13;4.70;99.90
39525;DHT22;25203;50.754;6.978;2024-03-25T01:18:13;4.60;99.90
39525;DHT22;25203;50.754;6.978;2024-03-25T01:20:14;4.70;99.90
39525;DHT22;25203;50.754;6.978;2024-03-25T01:22:14;4.70;99.90
39525;DHT22;25203;50.754;6.978;2024-03-25T01:24:15;4.80;99.90
39525;DHT22;25203;50.754;6.978;2024-03-25T01:26:16;4.80;99.90
39525;DHT22;25203;50.754;6.978;2024-03-25T01:28:17;4.90;99.90
39525;DHT22;25203;50.754;6.978;2024-03-25T01:30:17;4.90;99.90
39525;DHT22;25203;50.754;6.978;2024-03-25T01:32:19;4.90;99.90
39525;DHT22;25203;50.754;6.978;2024-03-25T01:34:19;4.90;99.90
39525;DHT22;25203;50.754;6.978;2024-03-25T01:36:20;4.90;99.90
39525;DHT22;25203;50.754;6.978;2024-03-25T01:38:21;4.90;99.90
39525;DHT22;25203;50.754;6.978;2024-03-25T01:40:22;4.90;99.90
39525;DHT22;25203;50.754;6.978;2024-03-25T01:42:22;4.90;99.90
39525;DHT22;25203;50.754;6.978;2024-03-25T01:44:23;5.00;99.90
39525;DHT22;25203;50.754;6.978;2024-03-25T01:46:25;4.90;99.90
39525;DHT22;25203;50.754;6.978;2024-03-25T01:48:26;5.00;99.90
39525;DHT22;25203;50.754;6.978;2024-03-25T01:50:26;4.90;99.90
39525;DHT22;25203;50.754;6.978;2024-03-25T01:52:27;4.90;99.90
39525;DHT22;25203;50.754;6.978;2024-03-25T01:54:28;4.90;99.90
39525;DHT22;25203;50.754;6.978;2024-03-25T01:56:31;4.90;99.90
39525;DHT22;25203;50.754;6.978;2024-03-25T01:58:33;4.90;99.90
39525;DHT22;25203;50.754;6.978;2024-03-25T02:00:34;4.80;99.90
39525;DHT22;25203;50.754;6.978;2024-03-25T02:02:37;4.80;99.90
39525;DHT22;25203;50.754;6.978;2024-03-25T02:04:42;4.70;99.90
39525;DHT22;25203;50.754;6.978;2024-03-25T02:06:44;4.70;99.90
39525;DHT22;25203;50.754;6.978;2024-03-25T02:08:45;4.60;99.90
39525;DHT22;25203;50.754;6.978;2024-03-25T02:10:45;4.60;99.90
39525;DHT22;25203;50.754;6.978;2024-03-25T02:12:47;4.60;99.90
39525;DHT22;25203;50.754;6.978;2024-03-25T02:14:47;4.60;99.90
39525;DHT22;25203;50.754;6.978;2024-03-25T02:16:48;4.60;99.90
39525;DHT22;25203;50.754;6.978;2024-03-25T02:18:50;4.70;99.90
39525;DHT22;25203;50.754;6.978;2024-03-25T02:20:51;4.70;99.90
39525;DHT22;25203;50.754;6.978;2024-03-25T02:22:51;4.70;99.90
39525;DHT22;25203;50.754;6.978;2024-03-25T02:24:53;4.70;99.90
39525;DHT22;25203;50.754;6.978;2024-03-25T02:26:56;4.70;99.90
39525;DHT22;25203;50.754;6.978;2024-03-25T02:28:57;4.70;99.90
39525;DHT22;25203;50.754;6.978;2024-03-25T02:30:57;4.70;99.90
39525;DHT22;25203;50.754;6.978;2024-03-25T02:32:58;4.70;99.90
39525;DHT22;25203;50.754;6.978;2024-03-25T02:34:58;4.70;99.90
39525;DHT22;25203;50.754;6.978;2024-03-25T02:36:59;4.70;99.90
39525;DHT22;25203;50.754;6.978;2024-03-25T02:39:00;4.70;99.90
39525;DHT22;25203;50.754;6.978;2024-03-25T02:41:00;4.70;99.90
39525;DHT22;25203;50.754;6.978;2024-03-25T02:43:01;4.60;99.90
39525;DHT22;25203;50.754;6.978;2024-03-25T02:45:03;4.60;99.90
39525;DHT22;25203;50.754;6.978;2024-03-25T02:47:04;4.50;99.90
39525;DHT22;25203;50.754;6.978;2024-03-25T02:49:05;4.50;99.90
39525;DHT22;25203;50.754;6.978;2024-03-25T02:51:05;4.50;99.90
39525;DHT22;25203;50.754;6.978;2024-03-25T02:53:06;4.40;99.90
39525;DHT22;25203;50.754;6.978;2024-03-25T02:55:07;4.40;99.90
39525;DHT22;25203;50.754;6.978;2024-03-25T02:57:07;4.30;99.90
39525;DHT22;25203;50.754;6.978;2024-03-25T02:59:08;4.20;99.90
39525;DHT22;25203;50.754;6.978;2024-03-25T03:01:08;4.20;99.90
39525;DHT22;25203;50.754;6.978;2024-03-25T03:03:09;4.20;99.90
39525;DHT22;25203;50.754;6.978;2024-03-25T03:05:09;4.10;99.90
39525;DHT22;25203;50.754;6.978;2024-03-25T03:07:10;4.10;99.90
39525;DHT22;25203;50.754;6.978;2024-03-25T03:09:11;4.10;99.90
39525;DHT22;25203;50.754;6.978;2024-03-25T03:11:11;4.10;99.90
39525;DHT22;25203;50.754;6.978;2024-03-25T03:13:12;4.10;99.90
39525;DHT22;25203;50.754;6.978;2024-03-25T03:15:12;4.10;99.90
39525;DHT22;25203;50.754;6.978;2024-03-25T03:17:13;4.10;99.90
39525;DHT22;25203;50.754;6.978;2024-03-25T03:19:14;4.10;99.90
39525;DHT22;25203;50.754;6.978;2024-03-25T03:21:15;4.10;99.90
39525;DHT22;25203;50.754;6.978;2024-03-25T03:23:15;4.10;99.90
39525;DHT22;25203;50.754;6.978;2024-03-25T03:25:16;4.00;99.90
39525;DHT22;25203;50.754;6.978;2024-03-25T03:27:17;4.00;99.90
39525;DHT22;25203;50.754;6.978;2024-03-25T03:29:17;4.10;99.90
39525;DHT22;25203;50.754;6.978;2024-03-25T03:31:18;4.00;99.90
39525;DHT22;25203;50.754;6.978;2024-03-25T03:33:19;4.00;99.90
39525;DHT22;25203;50.754;6.978;2024-03-25T03:35:19;3.90;99.90
39525;DHT22;25203;50.754;6.978;2024-03-25T03:37:20;4.00;99.90
39525;DHT22;25203;50.754;6.978;2024-03-25T03:39:20;3.90;99.90
39525;DHT22;25203;50.754;6.978;2024-03-25T03:41:21;3.90;99.90
39525;DHT22;25203;50.754;6.978;2024-03-25T03:43:22;3.90;99.90
39525;DHT22;25203;50.754;6.978;2024-03-25T03:45:24;3.90;99.90
39525;DHT22;25203;50.754;6.978;2024-03-25T03:47:25;3.80;99.90
39525;DHT22;25203;50.754;6.978;2024-03-25T03:49:26;3.80;99.90
39525;DHT22;25203;50.754;6.978;2024-03-25T03:51:26;3.70;99.90
39525;DHT22;25203;50.754;6.978;2024-03-25T03:53:27;3.70;99.90
39525;DHT22;25203;50.754;6.978;2024-03-25T03:55:27;3.70;99.90
39525;DHT22;25203;50.754;6.978;2024-03-25T03:57:28;3.70;99.90
39525;DHT22;25203;50.754;6.978;2024-03-25T03:59:29;3.60;99.90
39525;DHT22;25203;50.754;6.978;2024-03-25T04:01:29;3.60;99.90
39525;DHT22;25203;50.754;6.978;2024-03-25T04:03:30;3.60;99.90
39525;DHT22;25203;50.754;6.978;2024-03-25T04:05:31;3.50;99.90
39525;DHT22;25203;50.754;6.978;2024-03-25T04:07:32;3.40;99.90
39525;DHT22;25203;50.754;6.978;2024-03-25T04:09:33;3.40;99.90
39525;DHT22;25203;50.754;6.978;2024-03-25T04:11:36;3.30;99.90
39525;DHT22;25203;50.754;6.978;2024-03-25T04:13:36;3.30;99.90
39525;DHT22;25203;50.754;6.978;2024-03-25T04:15:40;3.30;99.90
39525;DHT22;25203;50.754;6.978;2024-03-25T04:17:42;3.20;99.90
39525;DHT22;25203;50.754;6.978;2024-03-25T04:19:45;3.10;99.90
39525;DHT22;25203;50.754;6.978;2024-03-25T04:21:45;3.00;99.90
39525;DHT22;25203;50.754;6.978;2024-03-25T04:23:46;2.90;99.90
39525;DHT22;25203;50.754;6.978;2024-03-25T04:25:50;2.80;99.90
39525;DHT22;25203;50.754;6.978;2024-03-25T04:27:50;2.80;99.90
39525;DHT22;25203;50.754;6.978;2024-03-25T04:29:51;2.70;99.90
39525;DHT22;25203;50.754;6.978;2024-03-25T04:31:52;2.70;99.90
39525;DHT22;25203;50.754;6.978;2024-03-25T04:33:52;2.60;99.90
39525;DHT22;25203;50.754;6.978;2024-03-25T04:35:53;2.60;99.90
39525;DHT22;25203;50.754;6.978;2024-03-25T04:37:53;2.60;99.90
39525;DHT22;25203;50.754;6.978;2024-03-25T04:39:56;2.60;99.90
39525;DHT22;25203;50.754;6.978;2024-03-25T04:41:56;2.60;99.90
39525;DHT22;25203;50.754;6.978;2024-03-25T04:43:57;2.60;99.90
39525;DHT22;25203;50.754;6.978;2024-03-25T04:46:01;2.60;99.90
39525;DHT22;25203;50.754;6.978;2024-03-25T04:48:01;2.60;99.90
39525;DHT22;25203;50.754;6.978;2024-03-25T04:50:02;2.50;99.90
39525;DHT22;25203;50.754;6.978;2024-03-25T04:52:04;2.50;99.90
39525;DHT22;25203;50.754;6.978;2024-03-25T04:54:04;2.50;99.90
39525;DHT22;25203;50.754;6.978;2024-03-25T04:56:05;2.40;99.90
39525;DHT22;25203;50.754;6.978;2024-03-25T04:58:06;2.40;99.90
39525;DHT22;25203;50.754;6.978;2024-03-25T05:00:07;2.50;99.90
39525;DHT22;25203;50.754;6.978;2024-03-25T05:02:11;2.40;99.90
39525;DHT22;25203;50.754;6.978;2024-03-25T05:04:11;2.40;99.90
39525;DHT22;25203;50.754;6.978;2024-03-25T05:06:12;2.30;99.90
39525;DHT22;25203;50.754;6.978;2024-03-25T05:08:12;2.30;99.90
39525;DHT22;25203;50.754;6.978;2024-03-25T05:10:13;2.20;99.90
39525;DHT22;25203;50.754;6.978;2024-03-25T05:12:14;2.20;99.90
39525;DHT22;25203;50.754;6.978;2024-03-25T05:14:14;2.10;99.90
39525;DHT22;25203;50.754;6.978;2024-03-25T05:16:15;2.10;99.90
39525;DHT22;25203;50.754;6.978;2024-03-25T05:18:17;2.00;99.90
39525;DHT22;25203;50.754;6.978;2024-03-25T05:20:17;2.00;99.90
39525;DHT22;25203;50.754;6.978;2024-03-25T05:22:18;1.90;99.90
39525;DHT22;25203;50.754;6.978;2024-03-25T05:24:18;1.80;99.90
39525;DHT22;25203;50.754;6.978;2024-03-25T05:26:19;1.80;99.90
39525;DHT22;25203;50.754;6.978;2024-03-25T05:28:19;1.70;99.90
39525;DHT22;25203;50.754;6.978;2024-03-25T05:30:20;1.70;99.90
39525;DHT22;25203;50.754;6.978;2024-03-25T05:32:21;1.60;99.90
39525;DHT22;25203;50.754;6.978;2024-03-25T05:34:22;1.50;99.90
39525;DHT22;25203;50.754;6.978;2024-03-25T05:36:22;1.50;99.90
39525;DHT22;25203;50.754;6.978;2024-03-25T05:38:23;1.50;99.90
39525;DHT22;25203;50.754;6.978;2024-03-25T05:40:23;1.40;99.90
39525;DHT22;25203;50.754;6.978;2024-03-25T05:42:24;1.40;99.90
39525;DHT22;25203;50.754;6.978;2024-03-25T05:44:25;1.40;99.90
39525;DHT22;25203;50.754;6.978;2024-03-25T05:46:25;1.40;99.90
39525;DHT22;25203;50.754;6.978;2024-03-25T05:48:26;1.30;99.90
39525;DHT22;25203;50.754;6.978;2024-03-25T05:50:26;1.30;99.90
39525;DHT22;25203;50.754;6.978;2024-03-25T05:52:28;1.30;99.90
39525;DHT22;25203;50.754;6.978;2024-03-25T05:54:29;1.30;99.90
39525;DHT22;25203;50.754;6.978;2024-03-25T05:56:30;1.30;99.90
39525;DHT22;25203;50.754;6.978;2024-03-25T05:58:34;1.30;99.90
39525;DHT22;25203;50.754;6.978;2024-03-25T06:00:35;1.30;99.90
39525;DHT22;25203;50.754;6.978;2024-03-25T06:02:35;1.40;99.90
39525;DHT22;25203;50.754;6.978;2024-03-25T06:04:36;1.50;99.90
39525;DHT22;25203;50.754;6.978;2024-03-25T06:06:36;1.60;99.90
39525;DHT22;25203;50.754;6.978;2024-03-25T06:08:37;1.70;99.90
39525;DHT22;25203;50.754;6.978;2024-03-25T06:10:38;1.70;99.90
39525;DHT22;25203;50.754;6.978;2024-03-25T06:12:38;1.80;99.90
39525;DHT22;25203;50.754;6.978;2024-03-25T06:14:39;1.90;99.90
39525;DHT22;25203;50.754;6.978;2024-03-25T06:16:39;2.00;99.90
39525;DHT22;25203;50.754;6.978;2024-03-25T06:18:41;2.10;99.90
39525;DHT22;25203;50.754;6.978;2024-03-25T06:20:42;2.20;99.90
39525;DHT22;25203;50.754;6.978;2024-03-25T06:22:42;2.30;99.90
39525;DHT22;25203;50.754;6.978;2024-03-25T06:24:43;2.40;99.90
39525;DHT22;25203;50.754;6.978;2024-03-25T06:26:44;2.50;99.90
39525;DHT22;25203;50.754;6.978;2024-03-25T06:28:45;2.60;99.90
39525;DHT22;25203;50.754;6.978;2024-03-25T06:30:48;2.70;99.90
39525;DHT22;25203;50.754;6.978;2024-03-25T06:33:07;2.80;99.90
39525;DHT22;25203;50.754;6.978;2024-03-25T06:35:26;2.90;99.90
39525;DHT22;25203;50.754;6.978;2024-03-25T06:37:27;3.00;99.90
39525;DHT22;25203;50.754;6.978;2024-03-25T06:39:27;3.10;99.90
39525;DHT22;25203;50.754;6.978;2024-03-25T06:41:28;3.20;99.90
39525;DHT22;25203;50.754;6.978;2024-03-25T06:43:28;3.30;99.90
39525;DHT22;25203;50.754;6.978;2024-03-25T06:45:29;3.50;99.90
39525;DHT22;25203;50.754;6.978;2024-03-25T06:47:30;3.60;99.90
39525;DHT22;25203;50.754;6.978;2024-03-25T06:49:30;3.80;99.90
39525;DHT22;25203;50.754;6.978;2024-03-25T06:51:31;3.90;99.90
39525;DHT22;25203;50.754;6.978;2024-03-25T06:53:31;4.10;99.90
39525;DHT22;25203;50.754;6.978;2024-03-25T06:55:32;4.40;99.90
39525;DHT22;25203;50.754;6.978;2024-03-25T06:57:33;4.60;99.90
39525;DHT22;25203;50.754;6.978;2024-03-25T06:59:34;4.80;99.90
39525;DHT22;25203;50.754;6.978;2024-03-25T07:01:36;4.90;99.90
39525;DHT22;25203;50.754;6.978;2024-03-25T07:03:37;5.00;99.90
39525;DHT22;25203;50.754;6.978;2024-03-25T07:05:38;5.20;99.90
39525;DHT22;25203;50.754;6.978;2024-03-25T07:07:38;5.30;99.90
39525;DHT22;25203;50.754;6.978;2024-03-25T07:09:39;5.30;99.90
39525;DHT22;25203;50.754;6.978;2024-03-25T07:11:39;5.40;99.90
39525;DHT22;25203;50.754;6.978;2024-03-25T07:13:43;5.50;99.90
39525;DHT22;25203;50.754;6.978;2024-03-25T07:15:44;5.50;99.90
39525;DHT22;25203;50.754;6.978;2024-03-25T07:17:45;5.60;99.90
39525;DHT22;25203;50.754;6.978;2024-03-25T07:19:45;5.60;99.90
39525;DHT22;25203;50.754;6.978;2024-03-25T07:21:46;5.70;99.90
39525;DHT22;25203;50.754;6.978;2024-03-25T07:23:46;5.70;99.90
39525;DHT22;25203;50.754;6.978;2024-03-25T07:25:48;5.90;99.90
39525;DHT22;25203;50.754;6.978;2024-03-25T07:27:48;6.00;99.90
39525;DHT22;25203;50.754;6.978;2024-03-25T07:29:49;6.10;99.90
39525;DHT22;25203;50.754;6.978;2024-03-25T07:31:49;6.20;99.90
39525;DHT22;25203;50.754;6.978;2024-03-25T07:33:50;6.30;99.90
39525;DHT22;25203;50.754;6.978;2024-03-25T07:35:51;6.30;99.90
39525;DHT22;25203;50.754;6.978;2024-03-25T07:37:52;6.40;99.90
39525;DHT22;25203;50.754;6.978;2024-03-25T07:39:52;6.70;99.90
39525;DHT22;25203;50.754;6.978;2024-03-25T07:41:53;7.20;99.90
39525;DHT22;25203;50.754;6.978;2024-03-25T07:43:54;8.10;99.90
39525;DHT22;25203;50.754;6.978;2024-03-25T07:45:54;9.20;99.90
39525;DHT22;25203;50.754;6.978;2024-03-25T07:47:55;10.20;99.90
39525;DHT22;25203;50.754;6.978;2024-03-25T07:49:55;11.20;98.00
39525;DHT22;25203;50.754;6.978;2024-03-25T07:51:56;11.90;97.00
39525;DHT22;25203;50.754;6.978;2024-03-25T07:53:56;12.20;94.50
39525;DHT22;25203;50.754;6.978;2024-03-25T07:55:57;12.30;93.80
39525;DHT22;25203;50.754;6.978;2024-03-25T07:57:57;12.10;94.30
39525;DHT22;25203;50.754;6.978;2024-03-25T07:59:58;12.30;93.80
39525;DHT22;25203;50.754;6.978;2024-03-25T08:01:59;12.90;93.20
39525;DHT22;25203;50.754;6.978;2024-03-25T08:04:00;13.70;92.60
39525;DHT22;25203;50.754;6.978;2024-03-25T08:06:02;14.20;91.40
39525;DHT22;25203;50.754;6.978;2024-03-25T08:08:04;14.70;90.20
39525;DHT22;25203;50.754;6.978;2024-03-25T08:10:05;15.20;89.80
39525;DHT22;25203;50.754;6.978;2024-03-25T08:12:06;16.10;87.80
39525;DHT22;25203;50.754;6.978;2024-03-25T08:14:06;16.80;85.20
39525;DHT22;25203;50.754;6.978;2024-03-25T08:16:07;17.80;82.90
39525;DHT22;25203;50.754;6.978;2024-03-25T08:18:08;18.80;79.00
39525;DHT22;25203;50.754;6.978;2024-03-25T08:20:09;19.30;74.50
39525;DHT22;25203;50.754;6.978;2024-03-25T08:22:09;19.10;73.90
39525;DHT22;25203;50.754;6.978;2024-03-25T08:24:10;18.60;72.80
39525;DHT22;25203;50.754;6.978;2024-03-25T08:26:11;18.30;74.90
39525;DHT22;25203;50.754;6.978;2024-03-25T08:28:11;18.50;72.10
39525;DHT22;25203;50.754;6.978;2024-03-25T08:30:12;18.40;73.60
39525;DHT22;25203;50.754;6.978;2024-03-25T08:32:13;18.70;73.80
39525;DHT22;25203;50.754;6.978;2024-03-25T08:34:13;18.80;73.20
39525;DHT22;25203;50.754;6.978;2024-03-25T08:36:14;18.40;72.10
39525;DHT22;25203;50.754;6.978;2024-03-25T08:38:15;18.00;72.80
39525;DHT22;25203;50.754;6.978;2024-03-25T08:40:15;17.70;73.10
39525;DHT22;25203;50.754;6.978;2024-03-25T08:42:16;18.20;73.30
39525;DHT22;25203;50.754;6.978;2024-03-25T08:44:16;19.10;71.90
39525;DHT22;25203;50.754;6.978;2024-03-25T08:46:17;20.10;71.50
39525;DHT22;25203;50.754;6.978;2024-03-25T08:48:18;21.30;68.90
39525;DHT22;25203;50.754;6.978;2024-03-25T08:50:19;21.00;65.90
39525;DHT22;25203;50.754;6.978;2024-03-25T08:52:19;20.70;66.80
39525;DHT22;25203;50.754;6.978;2024-03-25T08:54:20;19.10;67.00
39525;DHT22;25203;50.754;6.978;2024-03-25T08:56:20;19.00;67.30
39525;DHT22;25203;50.754;6.978;2024-03-25T08:58:21;18.80;68.00
39525;DHT22;25203;50.754;6.978;2024-03-25T09:00:21;19.20;66.50
39525;DHT22;25203;50.754;6.978;2024-03-25T09:02:23;20.00;66.30
39525;DHT22;25203;50.754;6.978;2024-03-25T09:04:23;21.40;66.20
39525;DHT22;25203;50.754;6.978;2024-03-25T09:06:24;22.60;63.40
39525;DHT22;25203;50.754;6.978;2024-03-25T09:08:25;22.80;62.20
39525;DHT22;25203;50.754;6.978;2024-03-25T09:10:27;23.40;61.80
39525;DHT22;25203;50.754;6.978;2024-03-25T09:12:46;23.70;60.70
39525;DHT22;25203;50.754;6.978;2024-03-25T09:14:47;25.00;58.80
39525;DHT22;25203;50.754;6.978;2024-03-25T09:16:47;24.80;59.20
39525;DHT22;25203;50.754;6.978;2024-03-25T09:18:48;25.70;59.40
39525;DHT22;25203;50.754;6.978;2024-03-25T09:20:48;25.50;58.30
39525;DHT22;25203;50.754;6.978;2024-03-25T09:22:49;26.00;57.90
39525;DHT22;25203;50.754;6.978;2024-03-25T09:24:50;26.20;56.90
39525;DHT22;25203;50.754;6.978;2024-03-25T09:26:50;25.50;56.30
39525;DHT22;25203;50.754;6.978;2024-03-25T09:28:51;24.30;56.10
39525;DHT22;25203;50.754;6.978;2024-03-25T09:30:51;22.70;57.90
39525;DHT22;25203;50.754;6.978;2024-03-25T09:32:52;22.00;58.80
39525;DHT22;25203;50.754;6.978;2024-03-25T09:34:53;21.30;59.50
39525;DHT22;25203;50.754;6.978;2024-03-25T09:36:53;20.50;60.50
39525;DHT22;25203;50.754;6.978;2024-03-25T09:38:54;19.40;61.20
39525;DHT22;25203;50.754;6.978;2024-03-25T09:40:55;19.20;62.70
39525;DHT22;25203;50.754;6.978;2024-03-25T09:42:58;19.70;61.40
39525;DHT22;25203;50.754;6.978;2024-03-25T09:45:02;20.40;60.90
39525;DHT22;25203;50.754;6.978;2024-03-25T09:47:04;20.80;60.20
39525;DHT22;25203;50.754;6.978;2024-03-25T09:49:05;20.40;60.00
39525;DHT22;25203;50.754;6.978;2024-03-25T09:51:06;19.50;60.20
39525;DHT22;25203;50.754;6.978;2024-03-25T09:53:07;18.50;62.10
39525;DHT22;25203;50.754;6.978;2024-03-25T09:55:08;18.60;62.10
39525;DHT22;25203;50.754;6.978;2024-03-25T09:57:09;19.70;60.80
39525;DHT22;25203;50.754;6.978;2024-03-25T09:59:09;20.40;59.90
39525;DHT22;25203;50.754;6.978;2024-03-25T10:01:10;20.50;59.00
39525;DHT22;25203;50.754;6.978;2024-03-25T10:03:11;20.00;60.60
39525;DHT22;25203;50.754;6.978;2024-03-25T10:05:14;20.30;62.10
39525;DHT22;25203;50.754;6.978;2024-03-25T10:07:22;20.60;61.10
39525;DHT22;25203;50.754;6.978;2024-03-25T10:09:23;20.40;61.20
39525;DHT22;25203;50.754;6.978;2024-03-25T10:11:24;19.60;61.60
39525;DHT22;25203;50.754;6.978;2024-03-25T10:13:26;19.00;63.10
39525;DHT22;25203;50.754;6.978;2024-03-25T10:15:27;19.60;62.20
39525;DHT22;25203;50.754;6.978;2024-03-25T10:17:29;19.70;61.50
39525;DHT22;25203;50.754;6.978;2024-03-25T10:19:30;19.60;62.00
39525;DHT22;25203;50.754;6.978;2024-03-25T10:21:31;20.00;61.40
39525;DHT22;25203;50.754;6.978;2024-03-25T10:23:31;20.90;61.00
39525;DHT22;25203;50.754;6.978;2024-03-25T10:25:32;22.30;59.20
39525;DHT22;25203;50.754;6.978;2024-03-25T10:27:33;22.80;58.10
39525;DHT22;25203;50.754;6.978;2024-03-25T10:29:34;23.60;57.60
39525;DHT22;25203;50.754;6.978;2024-03-25T10:31:34;24.20;56.80
39525;DHT22;25203;50.754;6.978;2024-03-25T10:33:35;24.90;56.20
39525;DHT22;25203;50.754;6.978;2024-03-25T10:35:37;26.30;55.50
39525;DHT22;25203;50.754;6.978;2024-03-25T10:37:39;27.20;54.20
39525;DHT22;25203;50.754;6.978;2024-03-25T10:39:50;27.70;54.30
39525;DHT22;25203;50.754;6.978;2024-03-25T10:41:56;28.10;53.00
39525;DHT22;25203;50.754;6.978;2024-03-25T10:43:59;28.50;53.60
39525;DHT22;25203;50.754;6.978;2024-03-25T10:46:04;29.10;52.40
39525;DHT22;25203;50.754;6.978;2024-03-25T10:48:15;28.40;52.30
39525;DHT22;25203;50.754;6.978;2024-03-25T10:50:16;27.70;51.40
39525;DHT22;25203;50.754;6.978;2024-03-25T10:52:20;27.30;50.80
39525;DHT22;25203;50.754;6.978;2024-03-25T10:54:22;26.70;52.80
39525;DHT22;25203;50.754;6.978;2024-03-25T10:56:23;26.50;53.00
39525;DHT22;25203;50.754;6.978;2024-03-25T10:58:24;26.40;52.50
39525;DHT22;25203;50.754;6.978;2024-03-25T11:00:25;26.50;53.10
39525;DHT22;25203;50.754;6.978;2024-03-25T11:02:25;27.00;51.70
39525;DHT22;25203;50.754;6.978;2024-03-25T11:04:26;26.70;52.30
39525;DHT22;25203;50.754;6.978;2024-03-25T11:06:27;26.30;52.00
39525;DHT22;25203;50.754;6.978;2024-03-25T11:08:31;26.20;51.50
39525;DHT22;25203;50.754;6.978;2024-03-25T11:10:32;26.40;51.70
39525;DHT22;25203;50.754;6.978;2024-03-25T11:12:35;26.70;50.70
39525;DHT22;25203;50.754;6.978;2024-03-25T11:14:37;26.90;50.60
39525;DHT22;25203;50.754;6.978;2024-03-25T11:16:37;26.40;50.40
39525;DHT22;25203;50.754;6.978;2024-03-25T11:18:38;26.90;50.50
39525;DHT22;25203;50.754;6.978;2024-03-25T11:20:39;27.30;50.20
39525;DHT22;25203;50.754;6.978;2024-03-25T11:22:53;27.80;49.90
39525;DHT22;25203;50.754;6.978;2024-03-25T11:24:55;27.60;48.40
39525;DHT22;25203;50.754;6.978;2024-03-25T11:26:56;27.40;48.70
39525;DHT22;25203;50.754;6.978;2024-03-25T11:28:56;26.50;48.60
39525;DHT22;25203;50.754;6.978;2024-03-25T11:30:57;26.10;49.40
39525;DHT22;25203;50.754;6.978;2024-03-25T11:33:01;26.20;49.30
39525;DHT22;25203;50.754;6.978;2024-03-25T11:35:02;26.80;49.30
39525;DHT22;25203;50.754;6.978;2024-03-25T11:37:04;27.30;48.90
39525;DHT22;25203;50.754;6.978;2024-03-25T11:39:04;27.40;48.40
39525;DHT22;25203;50.754;6.978;2024-03-25T11:41:10;27.60;47.80
39525;DHT22;25203;50.754;6.978;2024-03-25T11:43:22;27.30;48.70
39525;DHT22;25203;50.754;6.978;2024-03-25T11:45:23;27.10;47.50
39525;DHT22;25203;50.754;6.978;2024-03-25T11:47:25;25.90;48.70
39525;DHT22;25203;50.754;6.978;2024-03-25T11:49:26;25.00;48.50
39525;DHT22;25203;50.754;6.978;2024-03-25T11:51:27;23.90;49.50
39525;DHT22;25203;50.754;6.978;2024-03-25T11:53:29;23.00;47.90
39525;DHT22;25203;50.754;6.978;2024-03-25T11:55:30;21.80;49.40
39525;DHT22;25203;50.754;6.978;2024-03-25T11:57:31;20.60;50.90
39525;DHT22;25203;50.754;6.978;2024-03-25T11:59:31;19.80;52.50
39525;DHT22;25203;50.754;6.978;2024-03-25T12:01:32;19.30;52.40
39525;DHT22;25203;50.754;6.978;2024-03-25T12:03:34;18.80;54.00
39525;DHT22;25203;50.754;6.978;2024-03-25T12:05:34;18.30;53.90
39525;DHT22;25203;50.754;6.978;2024-03-25T12:07:35;18.20;54.30
39525;DHT22;25203;50.754;6.978;2024-03-25T12:09:36;17.60;54.80
39525;DHT22;25203;50.754;6.978;2024-03-25T12:11:55;17.20;54.90
39525;DHT22;25203;50.754;6.978;2024-03-25T12:14:00;16.90;54.70
39525;DHT22;25203;50.754;6.978;2024-03-25T12:16:01;16.60;55.60
39525;DHT22;25203;50.754;6.978;2024-03-25T12:18:03;16.30;56.30
39525;DHT22;25203;50.754;6.978;2024-03-25T12:20:07;15.80;55.80
39525;DHT22;25203;50.754;6.978;2024-03-25T12:22:08;15.20;55.90
39525;DHT22;25203;50.754;6.978;2024-03-25T12:24:09;15.10;58.30
39525;DHT22;25203;50.754;6.978;2024-03-25T12:26:09;14.80;57.70
39525;DHT22;25203;50.754;6.978;2024-03-25T12:28:10;14.50;59.00
39525;DHT22;25203;50.754;6.978;2024-03-25T12:30:11;14.60;60.80
39525;DHT22;25203;50.754;6.978;2024-03-25T12:32:12;14.90;60.10
39525;DHT22;25203;50.754;6.978;2024-03-25T12:34:13;15.20;58.90
39525;DHT22;25203;50.754;6.978;2024-03-25T12:36:14;15.80;59.30
39525;DHT22;25203;50.754;6.978;2024-03-25T12:38:28;16.30;58.10
39525;DHT22;25203;50.754;6.978;2024-03-25T12:40:29;16.70;56.90
39525;DHT22;25203;50.754;6.978;2024-03-25T12:42:33;16.60;56.90
39525;DHT22;25203;50.754;6.978;2024-03-25T12:44:34;16.70;58.60
39525;DHT22;25203;50.754;6.978;2024-03-25T12:46:35;16.80;58.80
39525;DHT22;25203;50.754;6.978;2024-03-25T12:48:38;16.60;58.50
39525;DHT22;25203;50.754;6.978;2024-03-25T12:50:39;16.50;57.90
39525;DHT22;25203;50.754;6.978;2024-03-25T12:52:40;16.20;58.30
39525;DHT22;25203;50.754;6.978;2024-03-25T12:54:40;16.00;59.30